Airfield :
LOGIN :

Register | Disclaimer

   EN    FR    IT 

 










Legend :    VFR   Marginal VFR   IFR   Intensive IFR   Very Intensive IFR
Visi :
Ceiling :
>= 8 km
>= 3000ft
5 to 8 km
1000 to 3000 ft
1500m to 5 km
500 to 1000 ft
800 to 1500m
200 to 500 ft
< 800m
< 200 ft
Symbols :   Thunderstorms  Fog  Heavy snow  Heavy precipitations  Wind > 20 kt
SIGMETs :     Misc.  Thunderstorms  Icing  Turbulence  Mountain Waves  Volcanic Ashes







- Airport Elevation : 355 ft
- IATA code : VBS


LIPO - Montichiari - Brescia

CURRENT METAR :
  • 111250Z 22004KT CAVOK 10/M01 Q1018

EXPIRED METARs :
  • 111150Z 24007KT CAVOK 10/01 Q1018
  • 111050Z 07003KT CAVOK 11/M03 Q1018

TAF TAF LIPO
Valid from the 11 at 12:00 until the 12 at 12:00 UTC


111100Z 1112/1212 VRB05KT CAVOK
No reported NOTAMs for that airfield.
1 SIGMET reported for the Milano FIR (LIMM) :
 
Severe turbulence
LIMM SIGMET 3 VALID 111040/111440 LIIP
LIMM MILANO FIR SEV TURB FCST WSW OF LINE N4649 E01058 - N4324 E01329 ABV FL230 MOV E NC=



MET'MAP, your aeronautical weather chart ! - Copyright ORBIFLY December 2007 - Disclaimer

ORBIFLY MET'MAP TEAM :

Programming & Development : Alexandra Zaïnal
Concept & Development : Baudouin d'Aumeries
Co-Development & Prog : Marc-Olivier Méhu
Technical & hardware support : Manuel Goepfert

Contact : metmap@orbifly.com




SOURCES & CREDITS :

   NOAA